« Back
NWS Peachtree City, Ga » Text Product » ATL Terminal Aerodrome Forecast


Printer-friendly Version
Current Version              Previous Versions:   1  2  3  4  5  6  7  8  9  

Terminal Aerodrome Forecast

227
FTUS42 KFFC 272332
TAFATL
TAF
KATL 272332Z 2800/2906 32007KT P6SM FEW050 SCT120
     FM280200 01003KT P6SM SCT250
     FM281400 34005KT P6SM FEW040
     FM281800 32006KT P6SM SCT050
     FM290300 34004KT P6SM SCT250=



USA.gov is the U.S. government's official web portal to all federal, state and local government web resources and services.